Trimbelle, Wisconsin
Current Conditions -  °F | °C
As of 6:50 AM on Monday 22 Dec 2014 (Local Time) from KRGK Reporting Station
Drizzle Drizzle  
Wind Chill: 28°   Ceiling: 600
Heat Index: 36°   Visibility: 1.2mi
Dew Point: 36°   Wind: 10mph
Humidity: 100%   Direction: 140°SE
Pressure: 29.71"   Gusts: NA
Location:  44.7206°N, 92.4859°W
Report Text: KRGK 221250Z AUTO 14009KT 1 1/4SM DZ OVC006 02/02 A2971 RMK AO2
Loading
Personal Weather Stations






























Interactive Weather Map New forecast layout! Learn more

10-Day Weather Forecast

Advertisements
Track Severe Weather on mobile